sensor_id;sensor_type;location;lat;lon;timestamp;temperature;humidity
14893;DHT22;7538;53.626;9.906;2023-03-03T00:00:44;2.00;99.90
14893;DHT22;7538;53.626;9.906;2023-03-03T00:03:15;2.10;99.90
14893;DHT22;7538;53.626;9.906;2023-03-03T00:05:43;2.10;99.90
14893;DHT22;7538;53.626;9.906;2023-03-03T00:08:10;2.20;99.90
14893;DHT22;7538;53.626;9.906;2023-03-03T00:10:37;2.20;99.90
14893;DHT22;7538;53.626;9.906;2023-03-03T00:13:13;2.10;99.90
14893;DHT22;7538;53.626;9.906;2023-03-03T00:15:41;2.10;99.90
14893;DHT22;7538;53.626;9.906;2023-03-03T00:18:18;2.20;99.90
14893;DHT22;7538;53.626;9.906;2023-03-03T00:20:49;2.30;99.90
14893;DHT22;7538;53.626;9.906;2023-03-03T00:23:25;2.30;99.90
14893;DHT22;7538;53.626;9.906;2023-03-03T00:25:53;2.30;99.90
14893;DHT22;7538;53.626;9.906;2023-03-03T00:28:25;2.30;99.90
14893;DHT22;7538;53.626;9.906;2023-03-03T00:30:54;2.40;99.90
14893;DHT22;7538;53.626;9.906;2023-03-03T00:33:26;-0.70;99.90
14893;DHT22;7538;53.626;9.906;2023-03-03T00:35:54;2.40;99.90
14893;DHT22;7538;53.626;9.906;2023-03-03T00:38:22;2.40;99.90
14893;DHT22;7538;53.626;9.906;2023-03-03T00:40:49;2.40;99.90
14893;DHT22;7538;53.626;9.906;2023-03-03T00:43:18;2.50;99.90
14893;DHT22;7538;53.626;9.906;2023-03-03T00:45:48;2.50;99.90
14893;DHT22;7538;53.626;9.906;2023-03-03T00:48:22;2.50;99.90
14893;DHT22;7538;53.626;9.906;2023-03-03T00:50:50;2.50;99.90
14893;DHT22;7538;53.626;9.906;2023-03-03T00:53:18;5.40;99.90
14893;DHT22;7538;53.626;9.906;2023-03-03T00:55:47;2.50;99.90
14893;DHT22;7538;53.626;9.906;2023-03-03T00:58:14;2.50;99.90
14893;DHT22;7538;53.626;9.906;2023-03-03T01:00:43;2.50;99.90
14893;DHT22;7538;53.626;9.906;2023-03-03T01:03:14;2.50;99.90
14893;DHT22;7538;53.626;9.906;2023-03-03T01:05:42;2.50;99.90
14893;DHT22;7538;53.626;9.906;2023-03-03T01:08:09;2.40;99.90
14893;DHT22;7538;53.626;9.906;2023-03-03T01:10:41;2.40;99.90
14893;DHT22;7538;53.626;9.906;2023-03-03T01:13:09;2.40;99.90
14893;DHT22;7538;53.626;9.906;2023-03-03T01:15:38;2.40;99.90
14893;DHT22;7538;53.626;9.906;2023-03-03T01:18:05;2.40;99.90
14893;DHT22;7538;53.626;9.906;2023-03-03T01:20:34;2.40;99.90
14893;DHT22;7538;53.626;9.906;2023-03-03T01:23:01;2.40;99.90
14893;DHT22;7538;53.626;9.906;2023-03-03T01:25:28;2.50;99.90
14893;DHT22;7538;53.626;9.906;2023-03-03T01:27:55;2.50;99.90
14893;DHT22;7538;53.626;9.906;2023-03-03T01:30:23;2.50;99.90
14893;DHT22;7538;53.626;9.906;2023-03-03T01:32:50;2.50;99.90
14893;DHT22;7538;53.626;9.906;2023-03-03T01:35:17;2.40;99.90
14893;DHT22;7538;53.626;9.906;2023-03-03T01:37:45;2.50;99.90
14893;DHT22;7538;53.626;9.906;2023-03-03T01:40:14;2.40;99.90
14893;DHT22;7538;53.626;9.906;2023-03-03T01:42:41;2.30;99.90
14893;DHT22;7538;53.626;9.906;2023-03-03T01:45:14;2.20;99.90
14893;DHT22;7538;53.626;9.906;2023-03-03T01:47:46;2.20;99.90
14893;DHT22;7538;53.626;9.906;2023-03-03T01:50:19;2.20;99.90
14893;DHT22;7538;53.626;9.906;2023-03-03T01:52:51;2.20;99.90
14893;DHT22;7538;53.626;9.906;2023-03-03T01:55:21;2.20;99.90
14893;DHT22;7538;53.626;9.906;2023-03-03T01:57:53;2.20;99.90
14893;DHT22;7538;53.626;9.906;2023-03-03T02:00:23;2.20;99.90
14893;DHT22;7538;53.626;9.906;2023-03-03T02:02:50;2.20;99.90
14893;DHT22;7538;53.626;9.906;2023-03-03T02:05:18;2.20;99.90
14893;DHT22;7538;53.626;9.906;2023-03-03T02:07:45;2.10;99.90
14893;DHT22;7538;53.626;9.906;2023-03-03T02:10:15;2.20;99.90
14893;DHT22;7538;53.626;9.906;2023-03-03T02:12:44;2.00;99.90
14893;DHT22;7538;53.626;9.906;2023-03-03T02:15:18;2.10;99.90
14893;DHT22;7538;53.626;9.906;2023-03-03T02:17:47;2.10;99.90
14893;DHT22;7538;53.626;9.906;2023-03-03T02:20:24;2.00;99.90
14893;DHT22;7538;53.626;9.906;2023-03-03T02:22:57;2.00;99.90
14893;DHT22;7538;53.626;9.906;2023-03-03T02:25:32;-0.90;99.90
14893;DHT22;7538;53.626;9.906;2023-03-03T02:28:01;2.00;99.90
14893;DHT22;7538;53.626;9.906;2023-03-03T02:30:28;1.90;99.90
14893;DHT22;7538;53.626;9.906;2023-03-03T02:32:55;1.80;99.90
14893;DHT22;7538;53.626;9.906;2023-03-03T02:35:28;1.80;99.90
14893;DHT22;7538;53.626;9.906;2023-03-03T02:38:01;1.80;99.90
14893;DHT22;7538;53.626;9.906;2023-03-03T02:40:33;1.80;99.90
14893;DHT22;7538;53.626;9.906;2023-03-03T02:43:05;1.80;99.90
14893;DHT22;7538;53.626;9.906;2023-03-03T02:45:32;4.60;99.90
14893;DHT22;7538;53.626;9.906;2023-03-03T02:47:59;1.70;99.90
14893;DHT22;7538;53.626;9.906;2023-03-03T02:50:26;1.60;99.90
14893;DHT22;7538;53.626;9.906;2023-03-03T02:52:52;1.50;99.90
14893;DHT22;7538;53.626;9.906;2023-03-03T02:55:19;1.50;99.90
14893;DHT22;7538;53.626;9.906;2023-03-03T02:57:46;1.50;99.90
14893;DHT22;7538;53.626;9.906;2023-03-03T03:00:15;1.50;99.90
14893;DHT22;7538;53.626;9.906;2023-03-03T03:02:41;1.50;99.90
14893;DHT22;7538;53.626;9.906;2023-03-03T03:05:08;1.50;99.90
14893;DHT22;7538;53.626;9.906;2023-03-03T03:07:35;1.50;99.90
14893;DHT22;7538;53.626;9.906;2023-03-03T03:10:02;1.60;99.90
14893;DHT22;7538;53.626;9.906;2023-03-03T03:12:29;0.50;99.90
14893;DHT22;7538;53.626;9.906;2023-03-03T03:14:57;1.70;99.90
14893;DHT22;7538;53.626;9.906;2023-03-03T03:17:25;1.60;99.90
14893;DHT22;7538;53.626;9.906;2023-03-03T03:19:52;1.50;99.90
14893;DHT22;7538;53.626;9.906;2023-03-03T03:22:19;1.50;99.90
14893;DHT22;7538;53.626;9.906;2023-03-03T03:24:45;1.60;99.90
14893;DHT22;7538;53.626;9.906;2023-03-03T03:27:12;1.50;99.90
14893;DHT22;7538;53.626;9.906;2023-03-03T03:29:39;1.60;99.90
14893;DHT22;7538;53.626;9.906;2023-03-03T03:32:06;1.60;99.90
14893;DHT22;7538;53.626;9.906;2023-03-03T03:34:34;1.70;99.90
14893;DHT22;7538;53.626;9.906;2023-03-03T03:37:01;1.70;99.90
14893;DHT22;7538;53.626;9.906;2023-03-03T03:39:28;1.70;99.90
14893;DHT22;7538;53.626;9.906;2023-03-03T03:41:55;1.70;99.90
14893;DHT22;7538;53.626;9.906;2023-03-03T03:44:21;1.70;99.90
14893;DHT22;7538;53.626;9.906;2023-03-03T03:46:49;1.80;99.90
14893;DHT22;7538;53.626;9.906;2023-03-03T03:49:16;1.70;99.90
14893;DHT22;7538;53.626;9.906;2023-03-03T03:51:44;1.70;99.90
14893;DHT22;7538;53.626;9.906;2023-03-03T03:54:11;1.70;99.90
14893;DHT22;7538;53.626;9.906;2023-03-03T03:56:38;1.70;99.90
14893;DHT22;7538;53.626;9.906;2023-03-03T03:59:05;1.70;99.90
14893;DHT22;7538;53.626;9.906;2023-03-03T04:01:32;1.70;99.90
14893;DHT22;7538;53.626;9.906;2023-03-03T04:03:59;1.70;99.90
14893;DHT22;7538;53.626;9.906;2023-03-03T04:06:26;1.80;99.90
14893;DHT22;7538;53.626;9.906;2023-03-03T04:08:54;1.80;99.90
14893;DHT22;7538;53.626;9.906;2023-03-03T04:11:21;1.80;99.90
14893;DHT22;7538;53.626;9.906;2023-03-03T04:13:48;1.80;99.90
14893;DHT22;7538;53.626;9.906;2023-03-03T04:16:14;1.70;99.90
14893;DHT22;7538;53.626;9.906;2023-03-03T04:18:41;1.70;99.90
14893;DHT22;7538;53.626;9.906;2023-03-03T04:21:11;1.70;99.90
14893;DHT22;7538;53.626;9.906;2023-03-03T04:23:38;1.70;99.90
14893;DHT22;7538;53.626;9.906;2023-03-03T04:26:07;1.60;99.90
14893;DHT22;7538;53.626;9.906;2023-03-03T04:28:35;0.30;99.90
14893;DHT22;7538;53.626;9.906;2023-03-03T04:31:02;1.70;99.90
14893;DHT22;7538;53.626;9.906;2023-03-03T04:33:29;1.60;99.90
14893;DHT22;7538;53.626;9.906;2023-03-03T04:35:55;1.70;99.90
14893;DHT22;7538;53.626;9.906;2023-03-03T04:38:22;1.60;99.90
14893;DHT22;7538;53.626;9.906;2023-03-03T04:40:49;1.70;99.90
14893;DHT22;7538;53.626;9.906;2023-03-03T04:43:17;1.70;99.90
14893;DHT22;7538;53.626;9.906;2023-03-03T04:45:44;1.70;99.90
14893;DHT22;7538;53.626;9.906;2023-03-03T04:48:11;1.70;99.90
14893;DHT22;7538;53.626;9.906;2023-03-03T04:50:38;1.80;99.90
14893;DHT22;7538;53.626;9.906;2023-03-03T04:53:04;1.80;99.90
14893;DHT22;7538;53.626;9.906;2023-03-03T04:55:31;1.70;99.90
14893;DHT22;7538;53.626;9.906;2023-03-03T04:57:59;1.80;99.90
14893;DHT22;7538;53.626;9.906;2023-03-03T05:00:27;1.80;99.90
14893;DHT22;7538;53.626;9.906;2023-03-03T05:02:54;1.80;99.90
14893;DHT22;7538;53.626;9.906;2023-03-03T05:05:21;1.70;99.90
14893;DHT22;7538;53.626;9.906;2023-03-03T05:07:47;1.70;99.90
14893;DHT22;7538;53.626;9.906;2023-03-03T05:10:14;1.70;99.90
14893;DHT22;7538;53.626;9.906;2023-03-03T05:12:42;1.80;99.90
14893;DHT22;7538;53.626;9.906;2023-03-03T05:15:09;1.80;99.90
14893;DHT22;7538;53.626;9.906;2023-03-03T05:17:37;1.80;99.90
14893;DHT22;7538;53.626;9.906;2023-03-03T05:20:05;1.60;99.90
14893;DHT22;7538;53.626;9.906;2023-03-03T05:22:33;1.60;99.90
14893;DHT22;7538;53.626;9.906;2023-03-03T05:24:59;1.70;99.90
14893;DHT22;7538;53.626;9.906;2023-03-03T05:27:26;1.70;99.90
14893;DHT22;7538;53.626;9.906;2023-03-03T05:29:53;1.80;99.90
14893;DHT22;7538;53.626;9.906;2023-03-03T05:32:20;1.80;99.90
14893;DHT22;7538;53.626;9.906;2023-03-03T05:34:48;1.90;99.90
14893;DHT22;7538;53.626;9.906;2023-03-03T05:37:15;1.90;99.90
14893;DHT22;7538;53.626;9.906;2023-03-03T05:39:42;1.90;99.90
14893;DHT22;7538;53.626;9.906;2023-03-03T05:42:11;1.90;99.90
14893;DHT22;7538;53.626;9.906;2023-03-03T05:44:37;1.90;99.90
14893;DHT22;7538;53.626;9.906;2023-03-03T05:47:04;1.90;99.90
14893;DHT22;7538;53.626;9.906;2023-03-03T05:49:31;1.90;99.90
14893;DHT22;7538;53.626;9.906;2023-03-03T05:51:59;1.90;99.90
14893;DHT22;7538;53.626;9.906;2023-03-03T05:54:26;1.90;99.90
14893;DHT22;7538;53.626;9.906;2023-03-03T05:56:53;1.90;99.90
14893;DHT22;7538;53.626;9.906;2023-03-03T05:59:21;2.00;99.90
14893;DHT22;7538;53.626;9.906;2023-03-03T06:01:48;2.00;99.90
14893;DHT22;7538;53.626;9.906;2023-03-03T06:04:15;2.00;99.90
14893;DHT22;7538;53.626;9.906;2023-03-03T06:06:42;2.00;99.90
14893;DHT22;7538;53.626;9.906;2023-03-03T06:09:10;2.00;99.90
14893;DHT22;7538;53.626;9.906;2023-03-03T06:11:37;1.90;99.90
14893;DHT22;7538;53.626;9.906;2023-03-03T06:14:04;1.80;99.90
14893;DHT22;7538;53.626;9.906;2023-03-03T06:16:31;1.80;99.90
14893;DHT22;7538;53.626;9.906;2023-03-03T06:18:57;1.80;99.90
14893;DHT22;7538;53.626;9.906;2023-03-03T06:21:25;1.80;99.90
14893;DHT22;7538;53.626;9.906;2023-03-03T06:23:52;1.90;99.90
14893;DHT22;7538;53.626;9.906;2023-03-03T06:26:20;1.90;99.90
14893;DHT22;7538;53.626;9.906;2023-03-03T06:28:47;2.00;99.90
14893;DHT22;7538;53.626;9.906;2023-03-03T06:31:18;2.00;99.90
14893;DHT22;7538;53.626;9.906;2023-03-03T06:33:45;2.00;99.90
14893;DHT22;7538;53.626;9.906;2023-03-03T06:36:12;2.10;99.90
14893;DHT22;7538;53.626;9.906;2023-03-03T06:38:38;2.10;99.90
14893;DHT22;7538;53.626;9.906;2023-03-03T06:41:05;2.10;99.90
14893;DHT22;7538;53.626;9.906;2023-03-03T06:43:34;2.10;99.90
14893;DHT22;7538;53.626;9.906;2023-03-03T06:46:03;1.90;99.90
14893;DHT22;7538;53.626;9.906;2023-03-03T06:48:30;1.90;99.90
14893;DHT22;7538;53.626;9.906;2023-03-03T06:50:58;1.90;99.90
14893;DHT22;7538;53.626;9.906;2023-03-03T06:53:26;2.00;99.90
14893;DHT22;7538;53.626;9.906;2023-03-03T06:55:53;2.00;99.90
14893;DHT22;7538;53.626;9.906;2023-03-03T06:58:21;2.00;99.90
14893;DHT22;7538;53.626;9.906;2023-03-03T07:00:53;2.00;99.90
14893;DHT22;7538;53.626;9.906;2023-03-03T07:03:22;2.00;99.90
14893;DHT22;7538;53.626;9.906;2023-03-03T07:05:49;1.90;99.90
14893;DHT22;7538;53.626;9.906;2023-03-03T07:08:19;2.00;99.90
14893;DHT22;7538;53.626;9.906;2023-03-03T07:10:48;2.00;99.90
14893;DHT22;7538;53.626;9.906;2023-03-03T07:13:18;2.00;99.90
14893;DHT22;7538;53.626;9.906;2023-03-03T07:15:46;2.00;99.90
14893;DHT22;7538;53.626;9.906;2023-03-03T07:18:33;2.10;99.90
14893;DHT22;7538;53.626;9.906;2023-03-03T07:21:12;2.20;99.90
14893;DHT22;7538;53.626;9.906;2023-03-03T07:23:40;2.10;99.90
14893;DHT22;7538;53.626;9.906;2023-03-03T07:26:09;2.10;99.90
14893;DHT22;7538;53.626;9.906;2023-03-03T07:28:40;2.20;99.90
14893;DHT22;7538;53.626;9.906;2023-03-03T07:31:24;2.20;99.90
14893;DHT22;7538;53.626;9.906;2023-03-03T07:33:54;2.30;99.90
14893;DHT22;7538;53.626;9.906;2023-03-03T07:36:27;2.40;99.90
14893;DHT22;7538;53.626;9.906;2023-03-03T07:38:57;2.40;99.90
14893;DHT22;7538;53.626;9.906;2023-03-03T07:41:24;2.50;99.90
14893;DHT22;7538;53.626;9.906;2023-03-03T07:43:53;2.50;99.90
14893;DHT22;7538;53.626;9.906;2023-03-03T07:46:29;2.60;99.90
14893;DHT22;7538;53.626;9.906;2023-03-03T07:49:15;2.60;99.90
14893;DHT22;7538;53.626;9.906;2023-03-03T07:51:46;2.60;99.90
14893;DHT22;7538;53.626;9.906;2023-03-03T07:54:24;2.70;99.90
14893;DHT22;7538;53.626;9.906;2023-03-03T07:56:55;1.80;99.90
14893;DHT22;7538;53.626;9.906;2023-03-03T07:59:24;2.90;99.90
14893;DHT22;7538;53.626;9.906;2023-03-03T08:01:53;2.90;99.90
14893;DHT22;7538;53.626;9.906;2023-03-03T08:04:25;3.00;99.90
14893;DHT22;7538;53.626;9.906;2023-03-03T08:06:55;3.10;99.90
14893;DHT22;7538;53.626;9.906;2023-03-03T08:09:37;3.20;99.90
14893;DHT22;7538;53.626;9.906;2023-03-03T08:12:19;3.20;99.90
14893;DHT22;7538;53.626;9.906;2023-03-03T08:14:50;3.30;99.90
14893;DHT22;7538;53.626;9.906;2023-03-03T08:17:20;3.30;99.90
14893;DHT22;7538;53.626;9.906;2023-03-03T08:19:49;3.40;99.90
14893;DHT22;7538;53.626;9.906;2023-03-03T08:22:19;3.40;99.90
14893;DHT22;7538;53.626;9.906;2023-03-03T08:24:50;3.50;99.90
14893;DHT22;7538;53.626;9.906;2023-03-03T08:27:17;3.50;99.90
14893;DHT22;7538;53.626;9.906;2023-03-03T08:29:43;3.50;99.90
14893;DHT22;7538;53.626;9.906;2023-03-03T08:32:10;3.60;99.90
14893;DHT22;7538;53.626;9.906;2023-03-03T08:34:37;3.70;99.90
14893;DHT22;7538;53.626;9.906;2023-03-03T08:37:05;3.80;99.90
14893;DHT22;7538;53.626;9.906;2023-03-03T08:39:32;4.00;99.90
14893;DHT22;7538;53.626;9.906;2023-03-03T08:42:00;4.10;99.90
14893;DHT22;7538;53.626;9.906;2023-03-03T08:44:26;5.00;99.90
14893;DHT22;7538;53.626;9.906;2023-03-03T08:46:53;4.30;99.90
14893;DHT22;7538;53.626;9.906;2023-03-03T08:49:21;4.40;99.90
14893;DHT22;7538;53.626;9.906;2023-03-03T08:51:48;4.60;99.90
14893;DHT22;7538;53.626;9.906;2023-03-03T08:54:18;4.70;99.90
14893;DHT22;7538;53.626;9.906;2023-03-03T08:56:45;4.70;99.90
14893;DHT22;7538;53.626;9.906;2023-03-03T08:59:11;4.60;99.90
14893;DHT22;7538;53.626;9.906;2023-03-03T09:01:38;4.60;99.90
14893;DHT22;7538;53.626;9.906;2023-03-03T09:04:07;4.60;99.90
14893;DHT22;7538;53.626;9.906;2023-03-03T09:06:34;4.60;99.90
14893;DHT22;7538;53.626;9.906;2023-03-03T09:09:01;4.70;99.90
14893;DHT22;7538;53.626;9.906;2023-03-03T09:11:30;4.70;99.90
14893;DHT22;7538;53.626;9.906;2023-03-03T09:14:03;4.80;99.90
14893;DHT22;7538;53.626;9.906;2023-03-03T09:16:35;4.90;99.90
14893;DHT22;7538;53.626;9.906;2023-03-03T09:19:21;5.00;99.90
14893;DHT22;7538;53.626;9.906;2023-03-03T09:21:50;5.00;99.90
14893;DHT22;7538;53.626;9.906;2023-03-03T09:24:24;5.00;99.90
14893;DHT22;7538;53.626;9.906;2023-03-03T09:26:53;5.10;99.90
14893;DHT22;7538;53.626;9.906;2023-03-03T09:29:25;5.00;99.90
14893;DHT22;7538;53.626;9.906;2023-03-03T09:31:53;5.10;99.90
14893;DHT22;7538;53.626;9.906;2023-03-03T09:34:23;5.10;99.90
14893;DHT22;7538;53.626;9.906;2023-03-03T09:36:51;5.40;99.90
14893;DHT22;7538;53.626;9.906;2023-03-03T09:39:20;5.10;99.90
14893;DHT22;7538;53.626;9.906;2023-03-03T09:42:22;5.20;99.90
14893;DHT22;7538;53.626;9.906;2023-03-03T09:45:14;5.30;99.90
14893;DHT22;7538;53.626;9.906;2023-03-03T09:48:18;5.30;99.90
14893;DHT22;7538;53.626;9.906;2023-03-03T09:50:55;5.40;99.90
14893;DHT22;7538;53.626;9.906;2023-03-03T09:53:39;5.30;99.90
14893;DHT22;7538;53.626;9.906;2023-03-03T09:56:14;5.30;99.90
14893;DHT22;7538;53.626;9.906;2023-03-03T09:58:56;5.40;99.90
14893;DHT22;7538;53.626;9.906;2023-03-03T10:01:46;5.40;99.90
14893;DHT22;7538;53.626;9.906;2023-03-03T10:04:35;5.50;99.90
14893;DHT22;7538;53.626;9.906;2023-03-03T10:07:15;5.60;99.90
14893;DHT22;7538;53.626;9.906;2023-03-03T10:10:01;5.70;99.90
14893;DHT22;7538;53.626;9.906;2023-03-03T10:12:34;5.90;99.90
14893;DHT22;7538;53.626;9.906;2023-03-03T10:15:26;6.00;99.90
14893;DHT22;7538;53.626;9.906;2023-03-03T10:18:01;6.10;99.90
14893;DHT22;7538;53.626;9.906;2023-03-03T10:20:38;6.30;99.90
14893;DHT22;7538;53.626;9.906;2023-03-03T10:23:17;6.40;99.90
14893;DHT22;7538;53.626;9.906;2023-03-03T10:25:57;6.50;99.90
14893;DHT22;7538;53.626;9.906;2023-03-03T10:31:43;6.60;99.90
14893;DHT22;7538;53.626;9.906;2023-03-03T10:34:26;6.80;99.90
14893;DHT22;7538;53.626;9.906;2023-03-03T10:36:58;6.90;99.90
14893;DHT22;7538;53.626;9.906;2023-03-03T10:39:44;7.00;99.90
14893;DHT22;7538;53.626;9.906;2023-03-03T10:42:26;7.20;99.90
14893;DHT22;7538;53.626;9.906;2023-03-03T10:45:09;7.30;99.90
14893;DHT22;7538;53.626;9.906;2023-03-03T10:47:52;7.30;99.90
14893;DHT22;7538;53.626;9.906;2023-03-03T10:50:25;7.30;99.90
14893;DHT22;7538;53.626;9.906;2023-03-03T10:53:00;7.30;99.90
14893;DHT22;7538;53.626;9.906;2023-03-03T10:55:36;7.30;99.90
14893;DHT22;7538;53.626;9.906;2023-03-03T10:58:21;7.20;99.90
14893;DHT22;7538;53.626;9.906;2023-03-03T11:00:58;7.10;99.90
14893;DHT22;7538;53.626;9.906;2023-03-03T11:04:00;7.00;99.90
14893;DHT22;7538;53.626;9.906;2023-03-03T11:06:39;6.90;99.90
14893;DHT22;7538;53.626;9.906;2023-03-03T11:09:14;6.90;99.90
14893;DHT22;7538;53.626;9.906;2023-03-03T11:11:50;6.80;99.90
14893;DHT22;7538;53.626;9.906;2023-03-03T11:14:25;6.80;99.90
14893;DHT22;7538;53.626;9.906;2023-03-03T11:17:01;6.90;99.90
14893;DHT22;7538;53.626;9.906;2023-03-03T11:19:59;6.80;99.90
14893;DHT22;7538;53.626;9.906;2023-03-03T11:22:37;6.80;99.90
14893;DHT22;7538;53.626;9.906;2023-03-03T11:25:22;6.70;99.90
14893;DHT22;7538;53.626;9.906;2023-03-03T11:28:12;6.80;99.90
14893;DHT22;7538;53.626;9.906;2023-03-03T11:31:07;6.90;99.90
14893;DHT22;7538;53.626;9.906;2023-03-03T11:33:41;6.90;99.90
14893;DHT22;7538;53.626;9.906;2023-03-03T11:36:17;7.00;99.90
14893;DHT22;7538;53.626;9.906;2023-03-03T11:38:52;7.10;99.90
14893;DHT22;7538;53.626;9.906;2023-03-03T11:41:28;7.20;99.90
14893;DHT22;7538;53.626;9.906;2023-03-03T11:44:02;7.20;99.90
14893;DHT22;7538;53.626;9.906;2023-03-03T11:46:33;7.20;99.90
14893;DHT22;7538;53.626;9.906;2023-03-03T11:49:04;7.30;99.90
14893;DHT22;7538;53.626;9.906;2023-03-03T11:51:43;7.30;99.90
14893;DHT22;7538;53.626;9.906;2023-03-03T11:54:19;7.40;99.90
14893;DHT22;7538;53.626;9.906;2023-03-03T11:56:47;7.60;99.90
14893;DHT22;7538;53.626;9.906;2023-03-03T12:02:19;7.80;99.90
14893;DHT22;7538;53.626;9.906;2023-03-03T12:04:49;8.00;99.90
14893;DHT22;7538;53.626;9.906;2023-03-03T12:07:28;8.10;99.90
14893;DHT22;7538;53.626;9.906;2023-03-03T12:10:05;8.20;99.90
14893;DHT22;7538;53.626;9.906;2023-03-03T12:12:39;8.40;99.90
14893;DHT22;7538;53.626;9.906;2023-03-03T12:15:18;8.50;99.90
14893;DHT22;7538;53.626;9.906;2023-03-03T12:17:57;9.50;99.90
14893;DHT22;7538;53.626;9.906;2023-03-03T12:20:33;8.80;99.90
14893;DHT22;7538;53.626;9.906;2023-03-03T12:23:14;9.00;99.90
14893;DHT22;7538;53.626;9.906;2023-03-03T12:25:42;9.10;99.90
14893;DHT22;7538;53.626;9.906;2023-03-03T12:28:15;9.10;99.90
14893;DHT22;7538;53.626;9.906;2023-03-03T12:31:10;9.20;99.90
14893;DHT22;7538;53.626;9.906;2023-03-03T12:33:52;9.10;99.90
14893;DHT22;7538;53.626;9.906;2023-03-03T12:36:38;9.00;99.90
14893;DHT22;7538;53.626;9.906;2023-03-03T12:39:10;8.90;99.90
14893;DHT22;7538;53.626;9.906;2023-03-03T12:41:43;8.90;99.90
14893;DHT22;7538;53.626;9.906;2023-03-03T12:44:19;8.90;99.90
14893;DHT22;7538;53.626;9.906;2023-03-03T12:46:54;8.80;99.90
14893;DHT22;7538;53.626;9.906;2023-03-03T12:49:34;9.00;99.90
14893;DHT22;7538;53.626;9.906;2023-03-03T12:52:10;9.10;99.90
14893;DHT22;7538;53.626;9.906;2023-03-03T12:54:52;9.30;99.90
14893;DHT22;7538;53.626;9.906;2023-03-03T12:57:24;9.30;99.90
14893;DHT22;7538;53.626;9.906;2023-03-03T13:00:14;9.30;99.90
14893;DHT22;7538;53.626;9.906;2023-03-03T13:02:50;9.40;99.90
14893;DHT22;7538;53.626;9.906;2023-03-03T13:05:24;9.50;99.90
14893;DHT22;7538;53.626;9.906;2023-03-03T13:08:03;9.40;99.90
14893;DHT22;7538;53.626;9.906;2023-03-03T13:10:40;9.40;99.90
14893;DHT22;7538;53.626;9.906;2023-03-03T13:13:12;9.40;99.90
14893;DHT22;7538;53.626;9.906;2023-03-03T13:15:44;9.50;99.90
14893;DHT22;7538;53.626;9.906;2023-03-03T13:18:24;9.50;99.90
14893;DHT22;7538;53.626;9.906;2023-03-03T13:20:56;9.40;99.90
14893;DHT22;7538;53.626;9.906;2023-03-03T13:23:34;9.30;99.90
14893;DHT22;7538;53.626;9.906;2023-03-03T13:26:12;9.30;99.90
14893;DHT22;7538;53.626;9.906;2023-03-03T13:28:54;9.30;99.90
14893;DHT22;7538;53.626;9.906;2023-03-03T13:31:25;9.10;99.90
14893;DHT22;7538;53.626;9.906;2023-03-03T13:33:56;9.10;99.90
14893;DHT22;7538;53.626;9.906;2023-03-03T13:36:26;8.90;99.90
14893;DHT22;7538;53.626;9.906;2023-03-03T13:38:59;8.90;99.90
14893;DHT22;7538;53.626;9.906;2023-03-03T13:41:32;8.90;99.90
14893;DHT22;7538;53.626;9.906;2023-03-03T13:44:05;8.90;99.90
14893;DHT22;7538;53.626;9.906;2023-03-03T13:46:39;9.00;99.90
14893;DHT22;7538;53.626;9.906;2023-03-03T13:49:31;9.10;99.90
14893;DHT22;7538;53.626;9.906;2023-03-03T13:52:01;9.10;99.90
14893;DHT22;7538;53.626;9.906;2023-03-03T13:54:47;9.20;99.90
14893;DHT22;7538;53.626;9.906;2023-03-03T13:57:28;10.00;99.90
14893;DHT22;7538;53.626;9.906;2023-03-03T14:00:10;9.10;99.90
14893;DHT22;7538;53.626;9.906;2023-03-03T14:02:54;9.10;99.90
14893;DHT22;7538;53.626;9.906;2023-03-03T14:05:25;9.20;99.90
14893;DHT22;7538;53.626;9.906;2023-03-03T14:07:58;9.20;99.90
14893;DHT22;7538;53.626;9.906;2023-03-03T14:10:29;9.20;99.90
14893;DHT22;7538;53.626;9.906;2023-03-03T14:13:02;9.10;99.90
14893;DHT22;7538;53.626;9.906;2023-03-03T14:15:32;9.10;99.90
14893;DHT22;7538;53.626;9.906;2023-03-03T14:18:17;9.00;99.90
14893;DHT22;7538;53.626;9.906;2023-03-03T14:20:49;9.00;99.90
14893;DHT22;7538;53.626;9.906;2023-03-03T14:23:20;9.10;99.90
14893;DHT22;7538;53.626;9.906;2023-03-03T14:25:56;9.00;99.90
14893;DHT22;7538;53.626;9.906;2023-03-03T14:28:27;9.00;99.90
14893;DHT22;7538;53.626;9.906;2023-03-03T14:30:55;9.00;99.90
14893;DHT22;7538;53.626;9.906;2023-03-03T14:33:27;8.90;99.90
14893;DHT22;7538;53.626;9.906;2023-03-03T14:36:04;8.80;99.90
14893;DHT22;7538;53.626;9.906;2023-03-03T14:38:40;8.90;99.90
14893;DHT22;7538;53.626;9.906;2023-03-03T14:41:20;8.80;99.90
14893;DHT22;7538;53.626;9.906;2023-03-03T14:44:00;8.80;99.90
14893;DHT22;7538;53.626;9.906;2023-03-03T14:46:36;8.80;99.90
14893;DHT22;7538;53.626;9.906;2023-03-03T14:49:06;8.90;99.90
14893;DHT22;7538;53.626;9.906;2023-03-03T14:51:40;8.90;99.90
14893;DHT22;7538;53.626;9.906;2023-03-03T14:54:13;8.80;99.90
14893;DHT22;7538;53.626;9.906;2023-03-03T14:56:56;8.70;99.90
14893;DHT22;7538;53.626;9.906;2023-03-03T14:59:25;8.70;99.90
14893;DHT22;7538;53.626;9.906;2023-03-03T15:01:59;8.60;99.90
14893;DHT22;7538;53.626;9.906;2023-03-03T15:04:28;8.70;99.90
14893;DHT22;7538;53.626;9.906;2023-03-03T15:06:56;8.70;99.90
14893;DHT22;7538;53.626;9.906;2023-03-03T15:09:31;8.70;99.90
14893;DHT22;7538;53.626;9.906;2023-03-03T15:12:02;8.70;99.90
14893;DHT22;7538;53.626;9.906;2023-03-03T15:14:35;8.20;99.90
14893;DHT22;7538;53.626;9.906;2023-03-03T15:17:19;8.60;99.90
14893;DHT22;7538;53.626;9.906;2023-03-03T15:20:09;8.50;99.90
14893;DHT22;7538;53.626;9.906;2023-03-03T15:22:47;8.50;99.90
14893;DHT22;7538;53.626;9.906;2023-03-03T15:25:21;8.40;99.90
14893;DHT22;7538;53.626;9.906;2023-03-03T15:27:55;8.30;99.90
14893;DHT22;7538;53.626;9.906;2023-03-03T15:30:35;8.10;99.90
14893;DHT22;7538;53.626;9.906;2023-03-03T15:33:12;8.10;99.90
14893;DHT22;7538;53.626;9.906;2023-03-03T15:35:48;8.10;99.90
14893;DHT22;7538;53.626;9.906;2023-03-03T15:38:30;8.00;99.90
14893;DHT22;7538;53.626;9.906;2023-03-03T15:41:10;7.90;99.90
14893;DHT22;7538;53.626;9.906;2023-03-03T15:43:50;8.00;99.90
14893;DHT22;7538;53.626;9.906;2023-03-03T15:46:31;7.90;99.90
14893;DHT22;7538;53.626;9.906;2023-03-03T15:49:12;7.50;99.90
14893;DHT22;7538;53.626;9.906;2023-03-03T15:51:58;8.00;99.90
14893;DHT22;7538;53.626;9.906;2023-03-03T15:54:36;7.90;99.90
14893;DHT22;7538;53.626;9.906;2023-03-03T15:57:13;7.80;99.90
14893;DHT22;7538;53.626;9.906;2023-03-03T16:00:16;7.80;99.90
14893;DHT22;7538;53.626;9.906;2023-03-03T16:02:53;7.80;99.90
14893;DHT22;7538;53.626;9.906;2023-03-03T16:05:24;7.80;99.90
14893;DHT22;7538;53.626;9.906;2023-03-03T16:07:59;7.70;99.90
14893;DHT22;7538;53.626;9.906;2023-03-03T16:10:33;7.70;99.90
14893;DHT22;7538;53.626;9.906;2023-03-03T16:13:18;7.70;99.90
14893;DHT22;7538;53.626;9.906;2023-03-03T16:15:53;7.70;99.90
14893;DHT22;7538;53.626;9.906;2023-03-03T16:18:34;7.70;99.90
14893;DHT22;7538;53.626;9.906;2023-03-03T16:23:49;7.60;99.90
14893;DHT22;7538;53.626;9.906;2023-03-03T16:26:35;7.60;99.90
14893;DHT22;7538;53.626;9.906;2023-03-03T16:29:27;9.80;99.90
14893;DHT22;7538;53.626;9.906;2023-03-03T16:31:59;7.50;99.90
14893;DHT22;7538;53.626;9.906;2023-03-03T16:34:34;7.40;99.90
14893;DHT22;7538;53.626;9.906;2023-03-03T16:37:07;7.40;99.90
14893;DHT22;7538;53.626;9.906;2023-03-03T16:39:47;7.40;99.90
14893;DHT22;7538;53.626;9.906;2023-03-03T16:42:23;7.30;99.90
14893;DHT22;7538;53.626;9.906;2023-03-03T16:44:59;7.20;99.90